Home > Products > Valid Products > TAF

000
FTUS46 KSGX 311500 AAA
TAFONT
TAF AMD
KONT 311552Z 3116/0118 VRB04KT 5SM HZ SCT010 BKN025
     FM312000 24011KT P6SM BKN035
     FM010200 24007KT P6SM VCSH BKN017 OVC040
     FM010700 24006KT 6SM -SHRA BR SCT008 BKN015 OVC040
     FM011400 26010KT P6SM VCSH SCT015 BKN025 OVC040=



000
FTUS46 KSGX 311500 AAA
TAFSNA
TAF AMD
KSNA 311551Z 3116/0112 VRB04KT P6SM BKN035
     FM312100 22008KT P6SM BKN035
     FM010200 19007KT P6SM VCSH BKN025 BKN045
     FM010700 20011KT 6SM -SHRA BR FEW010 BKN015 OVC040=



000
FTUS46 KSGX 311500 AAA
TAFCRQ
TAF AMD
KCRQ 311551Z 3116/0112 VRB04KT P6SM BKN035
     FM311900 22008KT P6SM BKN035
     FM010200 21008KT P6SM VCSH BKN025 BKN045
     FM010900 23011KT 6SM -SHRA BR FEW008 BKN015 OVC040=



000
FTUS46 KSGX 311400 AAA
TAFSAN
TAF AMD
KSAN 311440Z 3115/0118 VRB04KT P6SM BKN025 BKN035
     FM311800 24008KT P6SM BKN035
     FM010200 20008KT P6SM VCSH BKN025 BKN045
     FM011100 23012KT 6SM -SHRA BR FEW010 BKN015 OVC040
     FM011500 27012G20KT P6SM VCSH SCT015 BKN029 OVC050=



000
FTUS46 KSGX 311100
TAFPSP
TAF
KPSP 311129Z 3112/0112 VRB06KT P6SM SKC
     FM312300 33012KT P6SM SCT200
     FM010200 33015G25KT P6SM BKN200
     FM010700 33008KT P6SM BKN200=



000
FTUS46 KSGX 311100
TAFSAN
TAF
KSAN 311129Z 3112/0118 VRB03KT P6SM BKN015 OVC029
     FM311400 VRB05KT P6SM BKN025 BKN035
     FM311800 24008KT P6SM BKN035
     FM010200 20008KT P6SM VCSH BKN025 BKN045
     FM011100 23012KT 6SM -SHRA BR FEW010 BKN015 OVC040
     FM011500 27012G20KT P6SM VCSH SCT015 BKN029 OVC050=



000
FTUS46 KSGX 311100
TAFCRQ
TAF
KCRQ 311129Z 3112/0112 VRB03KT P6SM SCT010 BKN025
     FM311700 VRB04KT P6SM BKN035
     FM311900 22008KT P6SM BKN035
     FM010200 21008KT P6SM VCSH BKN025 BKN045
     FM010900 23011KT 6SM -SHRA BR FEW008 BKN015 OVC040=



000
FTUS46 KSGX 311100
TAFONT
TAF
KONT 311129Z 3112/0118 VRB04KT P6SM FEW012 FEW250
     FM311400 VRB04KT 6SM BR BKN010
     FM311600 VRB04KT P6SM SCT015 BKN035
     FM312100 24011KT P6SM SCT015 BKN035
     FM010200 24007KT P6SM VCSH BKN017 OVC040
     FM010700 24006KT 6SM -SHRA BR SCT008 BKN015 OVC040
     FM011400 26010KT P6SM VCSH SCT015 BKN025 OVC040=



000
FTUS46 KSGX 311100
TAFTRM
TAF
KTRM 311129Z 3112/0112 VRB06KT P6SM SCT200
     FM010100 33011KT P6SM SCT200
     FM010300 33015G25KT P6SM SCT200
     FM010800 33011KT P6SM BKN200=



000
FTUS46 KSGX 311100
TAFSNA
TAF
KSNA 311129Z 3112/0112 VRB03KT P6SM BKN015 BKN025
     FM311700 VRB04KT P6SM BKN035
     FM312100 22008KT P6SM BKN035
     FM010200 19007KT P6SM VCSH BKN025 BKN045
     FM010700 20011KT 6SM -SHRA BR FEW010 BKN015 OVC040=



000
FTUS46 KSGX 311000 AAB
TAFCRQ
TAF AMD
KCRQ 311006Z 3110/0106 VRB04KT P6SM OVC025
     FM311600 VRB03KT P6SM BKN030
     FM312000 25009KT P6SM BKN035
     FM010300 23009KT P6SM VCSH BKN023 BKN045=



000
FTUS46 KSGX 311000 AAB
TAFCRQ
TAF AMD
KCRQ 311006Z 3110/0106 VRB04KT P6SM OVC025
     FM311600 VRB03KT P6SM BKN030
     FM312000 25009KT P6SM BKN035
     FM010300 23009KT P6SM VCSH BKN023 BKN045=



000
FTUS46 KSGX 311000 AAB
TAFSAN
TAF AMD
KSAN 311005Z 3110/0112 VRB03KT P6SM FEW018 OVC029
     FM311400 VRB03KT P6SM OVC030
     FM312000 25007KT P6SM BKN030
     FM010100 20008KT P6SM VCSH BKN025 BKN045
     FM011100 23010KT P6SM -SHRA FEW015 BKN020 OVC040=



000
FTUS46 KSGX 311000 AAB
TAFSAN
TAF AMD
KSAN 311005Z 3110/0112 VRB03KT P6SM FEW018 OVC029
     FM311400 VRB03KT P6SM OVC030
     FM312000 25007KT P6SM BKN030
     FM010100 20008KT P6SM VCSH BKN025 BKN045
     FM011100 23010KT P6SM -SHRA FEW015 BKN020 OVC040=



000
FTUS46 KSGX 310900 AAA
TAFSNA
TAF AMD
KSNA 310908Z 3109/0106 VRB04KT P6SM SCT020 BKN200
     FM311030 VRB03KT P6SM OVC020
     FM312100 22007KT P6SM BKN025
     FM010200 20009KT P6SM VCSH BKN025 BKN045=



000
FTUS46 KSGX 310800 AAA
TAFSAN
TAF AMD
KSAN 310817Z 3108/0112 VRB03KT P6SM OVC018
      TEMPO 3108/3110 SCT025
     FM311400 VRB03KT P6SM OVC022
     FM312000 25007KT P6SM BKN025
     FM010100 20008KT P6SM VCSH BKN025 BKN045
     FM011100 23010KT P6SM -SHRA BKN020 OVC040=



000
FTUS46 KSGX 310800 AAA
TAFCRQ
TAF AMD
KCRQ 310816Z 3108/0106 VRB04KT P6SM SCT010
     FM310915 VRB03KT 6SM BR OVC010
     FM311600 VRB03KT P6SM BKN020
     FM312000 25009KT P6SM BKN022
     FM010300 23009KT P6SM VCSH BKN023 BKN045=



000
FTUS46 KSGX 310500
TAFPSP
TAF
KPSP 310520Z 3106/0106 33007KT P6SM BKN200
     FM311400 VRB06KT P6SM FEW200
     FM312200 33012KT P6SM FEW200
     FM010400 33015G25KT P6SM SCT200=



000
FTUS46 KSGX 310500
TAFONT
TAF
KONT 310520Z 3106/0112 VRB04KT P6SM BKN180
     FM311400 VRB04KT 2SM BR BKN005
     FM311600 VRB04KT 4SM BR OVC009
     FM311900 VRB03KT 6SM HZ SCT010
     FM312100 24011KT P6SM SCT015 BKN035
     FM010200 26011KT P6SM VCSH BKN017 OVC040
     FM010700 26011KT P6SM -SHRA BKN015 OVC035=



000
FTUS46 KSGX 310500
TAFSAN
TAF
KSAN 310520Z 3106/0112 VRB04KT P6SM SCT020 BKN200
     FM310700 VRB04KT P6SM OVC017
     FM311400 VRB03KT P6SM OVC022
     FM312000 25007KT P6SM BKN025
     FM010100 20008KT P6SM VCSH BKN025 BKN045
     FM011100 23010KT P6SM -SHRA BKN020 OVC040=



000
FTUS46 KSGX 310500
TAFSNA
TAF
KSNA 310520Z 3106/0106 VRB04KT P6SM SCT020 BKN200
     FM310900 VRB03KT P6SM OVC017
     FM311500 VRB04KT P6SM OVC022
     FM312100 22007KT P6SM BKN025
     FM010200 20009KT P6SM VCSH BKN025 BKN045=



000
FTUS46 KSGX 310500
TAFCRQ
TAF
KCRQ 310520Z 3106/0106 VRB04KT P6SM SCT010
     FM310700 VRB03KT P6SM OVC010
     FM311600 VRB03KT P6SM BKN020
     FM312000 25009KT P6SM BKN022
     FM010300 23009KT P6SM VCSH BKN023 BKN045=



000
FTUS46 KSGX 310500
TAFTRM
TAF
KTRM 310520Z 3106/0106 VRB06KT P6SM SCT200
     FM010100 33010KT P6SM SCT200
     FM010300 33015G25KT P6SM SCT200=



000
FTUS46 KSGX 310300 AAA
TAFSAN
TAF AMD
KSAN 310307Z 3103/0106 VRB04KT P6SM SCT016 BKN200
     FM310700 VRB03KT P6SM OVC015
     FM311400 VRB03KT P6SM OVC020
     FM312000 25007KT P6SM BKN025
     FM010100 20010KT P6SM VCSH BKN025 OVC045=



000
FTUS46 KSGX 302300
TAFTRM
TAF
KTRM 302339Z 3100/3124 VRB06KT P6SM SCT200=



000
FTUS46 KSGX 302300
TAFCRQ
TAF
KCRQ 302339Z 3100/3124 25009KT P6SM SCT013 SCT200
      TEMPO 3100/3102 BKN013
     FM310200 VRB04KT P6SM SCT012 BKN200
     FM310700 VRB03KT P6SM OVC010
     FM311600 VRB03KT P6SM BKN020
     FM312000 25009KT P6SM BKN023=



000
FTUS46 KSGX 302300
TAFONT
TAF
KONT 302339Z 3100/0106 26010KT P6SM BKN250
     FM310300 VRB04KT P6SM FEW010 SCT200
     FM311400 VRB04KT 2SM BR BKN005
     FM311600 VRB04KT 4SM BR OVC009
     FM311900 VRB03KT 6SM HZ BKN010
     FM312100 24011KT P6SM SCT015 BKN035
     FM010200 26011KT P6SM VCSH BKN020 OVC040=



000
FTUS46 KSGX 302300
TAFSNA
TAF
KSNA 302339Z 3100/3124 22007KT P6SM SCT019 BKN150
     FM310200 VRB04KT P6SM SCT015 BKN150
     FM311100 VRB03KT P6SM OVC015
     FM311500 VRB04KT P6SM OVC020
     FM312100 22008KT P6SM BKN025=



000
FTUS46 KSGX 302300
TAFSAN
TAF
KSAN 302339Z 3100/0106 26007KT P6SM SCT200
     FM310200 VRB04KT P6SM FEW015 BKN200
     FM310700 VRB03KT P6SM OVC012
     FM311400 VRB03KT P6SM OVC020
     FM312000 25007KT P6SM BKN025
     FM010100 20010KT P6SM VCSH BKN025 OVC045=



000
FTUS46 KSGX 302300
TAFPSP
TAF
KPSP 302339Z 3100/3124 14007KT P6SM SCT200
     FM310300 33007KT P6SM SCT200
     FM311400 VRB04KT P6SM BKN200=



000
FTUS46 KSGX 302000 AAA
TAFSAN
TAF AMD
KSAN 302030Z 3021/3124 27008KT P6SM SCT250
     FM310200 VRB04KT P6SM SCT015 SCT250
     FM310400 VRB03KT P6SM OVC015
     FM311400 VRB03KT P6SM BKN022
     FM311900 22008KT P6SM SCT025=



000
FTUS46 KSGX 301700
TAFONT
TAF
KONT 301722Z 3018/3124 VRB03KT P6SM BKN250
     FM302100 26010KT P6SM BKN250
     FM310300 VRB04KT P6SM FEW010 SCT200
     FM311000 VRB04KT 5SM BR BKN009
     FM311600 VRB03KT 6SM HZ SCT010 SCT200
     FM312100 24011KT P6SM SCT030=



000
FTUS46 KSGX 301700
TAFSNA
TAF
KSNA 301722Z 3018/3118 VRB03KT P6SM BKN250
     FM302000 22007KT P6SM BKN200
     FM310200 VRB04KT P6SM SCT015
     FM310500 VRB03KT P6SM OVC015
     FM311400 VRB04KT P6SM BKN022=



000
FTUS46 KSGX 301700
TAFSAN
TAF
KSAN 301722Z 3018/3124 VRB04KT P6SM BKN250
     FM301900 27008KT P6SM BKN250
     FM310200 VRB05KT P6SM SCT015 SCT250
     FM310400 VRB03KT P6SM OVC015
     FM311400 VRB03KT P6SM BKN022
     FM311900 22008KT P6SM SCT025=



000
FTUS46 KSGX 301700
TAFTRM
TAF
KTRM 301722Z 3018/3118 VRB05KT P6SM BKN250=



000
FTUS46 KSGX 301700
TAFPSP
TAF
KPSP 301722Z 3018/3118 11006KT P6SM BKN200
     FM310300 33007KT P6SM SCT200
     FM311400 VRB04KT P6SM BKN200=



000
FTUS46 KSGX 301700
TAFCRQ
TAF
KCRQ 301722Z 3018/3118 VRB03KT P6SM BKN200
     FM302000 26007KT P6SM BKN200
     FM310100 VRB04KT P6SM SCT012 SCT200
     FM310400 VRB03KT P6SM OVC011
     FM311500 VRB03KT P6SM BKN020=



000
FTUS46 KSGX 301400 AAA
TAFSNA
TAF AMD
KSNA 301428Z 3014/3112 VRB03KT P6SM BKN250
     FM301900 21007KT P6SM BKN200
     FM310200 VRB04KT P6SM SCT015
     FM310500 VRB05KT P6SM OVC015=



000
FTUS46 KSGX 301400 AAB
TAFSAN
TAF AMD
KSAN 301427Z 3014/3118 VRB03KT P6SM SCT004 BKN200
     FM301500 VRB04KT P6SM SCT007 SCT200
     FM301900 29008KT P6SM BKN200
     FM310200 VRB05KT P6SM SCT015 SCT200
     FM310400 VRB04KT P6SM OVC015
     FM311600 VRB04KT P6SM BKN022=



000
FTUS46 KSGX 301200 AAA
TAFSAN
TAF AMD
KSAN 301242Z 3013/3118 VRB03KT 5SM BR BKN008
      TEMPO 3013/3014 2SM BR BKN004
     FM301500 VRB04KT P6SM SCT007 SCT200
     FM301900 29008KT P6SM BKN200
     FM310200 VRB05KT P6SM SCT015 SCT200
     FM310400 VRB04KT P6SM OVC015
     FM311600 VRB04KT P6SM BKN022=



000
FTUS46 KSGX 301100
TAFCRQ
TAF
KCRQ 301120Z 3012/3112 VRB04KT P6SM SCT004 SCT200
      TEMPO 3012/3014 5SM BR BKN004
     FM301900 26007KT P6SM BKN200
     FM310100 VRB04KT P6SM SCT010 SCT200
     FM310400 VRB05KT P6SM OVC010=



000
FTUS46 KSGX 301100
TAFSAN
TAF
KSAN 301120Z 3012/3118 VRB03KT P6SM SCT008 SCT200
      TEMPO 3012/3015 6SM BR BKN008
     FM301900 29008KT P6SM BKN200
     FM310200 VRB05KT P6SM SCT015 SCT200
     FM310400 VRB04KT P6SM OVC015
     FM311600 VRB04KT P6SM BKN022=



000
FTUS46 KSGX 301100
TAFSNA
TAF
KSNA 301120Z 3012/3112 VRB03KT P6SM SCT007 SCT200
      TEMPO 3013/3015 6SM BR BKN006
     FM301900 21007KT P6SM BKN200
     FM310200 VRB04KT P6SM SCT015
     FM310500 VRB05KT P6SM OVC015=



000
FTUS46 KSGX 301100
TAFPSP
TAF
KPSP 301120Z 3012/3112 33005KT P6SM SCT200
     FM301800 11006KT P6SM BKN200
     FM310300 33007KT P6SM SCT200=



000
FTUS46 KSGX 301100
TAFONT
TAF
KONT 301120Z 3012/3118 VRB04KT P6SM SCT200
     FM302100 26008KT P6SM BKN200
     FM310400 24005KT P6SM SCT200
     FM311000 VRB04KT 5SM BR BKN009
     FM311500 VRB03KT 6SM HZ SCT010 SCT200=



000
FTUS46 KSGX 301100
TAFTRM
TAF
KTRM 301120Z 3012/3112 VRB05KT P6SM SCT200=



000
FTUS46 KSGX 300900 AAA
TAFCRQ
TAF AMD
KCRQ 300908Z 3009/3106 VRB03KT P6SM SCT004 SCT200
      TEMPO 3010/3014 4SM BR BKN003
     FM301900 26007KT P6SM BKN200
     FM310100 VRB04KT P6SM SCT010 SCT200
     FM310400 VRB05KT P6SM BKN010=



000
FTUS46 KSGX 300900 AAA
TAFSNA
TAF AMD
KSNA 300908Z 3009/3106 VRB03KT P6SM SCT006 SCT200
      TEMPO 3011/3015 5SM BR BKN005
     FM301900 21007KT P6SM BKN200
     FM310200 VRB04KT P6SM SCT012
     FM310500 VRB05KT P6SM BKN012=



000
FTUS46 KSGX 300900 AAA
TAFSAN
TAF AMD
KSAN 300908Z 3009/3112 VRB03KT P6SM SCT007 SCT200
      TEMPO 3010/3014 5SM BR BKN006
     FM301900 29008KT P6SM BKN200
     FM310200 VRB05KT P6SM SCT015 SCT200
     FM310400 VRB05KT P6SM BKN015=



000
FTUS46 KSGX 300500
TAFCRQ
TAF
KCRQ 300520Z 3006/3106 VRB03KT P6SM FEW007
      TEMPO 3008/3012 4SM BR BKN004
     FM301200 VRB03KT 4SM BR BKN004
     FM301500 VRB06KT P6SM FEW080 SCT200
     FM310400 VRB05KT P6SM BKN010=



000
FTUS46 KSGX 300500
TAFSAN
TAF
KSAN 300520Z 3006/3112 VRB03KT P6SM FEW010 SCT200
      TEMPO 3008/3011 5SM HZ BKN007
     FM301100 VRB05KT 5SM BR BKN006
     FM301500 VRB05KT P6SM FEW010
     FM302000 28008KT P6SM SCT250
     FM310100 VRB05KT P6SM SCT250
     FM310300 VRB05KT P6SM BKN013=



000
FTUS46 KSGX 300500
TAFONT
TAF
KONT 300520Z 3006/3112 VRB03KT P6SM FEW200
     FM302100 26010KT P6SM SCT200
     FM310200 VRB05KT P6SM SCT200=



000
FTUS46 KSGX 300500
TAFSNA
TAF
KSNA 300520Z 3006/3106 VRB03KT P6SM SCT008
      TEMPO 3009/3013 3SM BR BKN005
     FM301300 VRB05KT 3SM BR BKN005
     FM301600 VRB03KT P6SM SCT200
     FM310400 VRB05KT P6SM BKN011=



000
FTUS46 KSGX 300500
TAFPSP
TAF
KPSP 300520Z 3006/3106 VRB06KT P6SM SCT200=



000
FTUS46 KSGX 300500
TAFTRM
TAF
KTRM 300520Z 3006/3106 VRB05KT P6SM SCT200=



000
FTUS46 KSGX 300200 AAA
TAFSAN
TAF AMD
KSAN 300250Z 3003/3106 VRB03KT P6SM FEW010 SCT200
      TEMPO 3008/3012 5SM HZ BKN006
     FM302000 28008KT P6SM SCT250
     FM310100 VRB05KT P6SM SCT250
     FM310300 VRB05KT P6SM BKN015=



000
FTUS46 KSGX 292300
TAFSAN
TAF
KSAN 292337Z 3000/3106 30008KT P6SM SKC
     FM300200 VRB03KT P6SM FEW010 SCT200
      TEMPO 3008/3012 5SM HZ BKN006
     FM302000 28008KT P6SM SCT250
     FM310100 VRB05KT P6SM SCT250
     FM310300 VRB05KT P6SM BKN015=



000
FTUS46 KSGX 292300
TAFTRM
TAF
KTRM 292337Z 3000/3024 VRB05KT P6SM SCT200=



000
FTUS46 KSGX 292300
TAFPSP
TAF
KPSP 292337Z 3000/3024 VRB06KT P6SM SCT200=



000
FTUS46 KSGX 292300
TAFONT
TAF
KONT 292337Z 3000/3106 27010KT P6SM SKC
     FM300200 VRB03KT P6SM FEW200
     FM302100 26010KT P6SM SCT200
     FM310200 VRB05KT P6SM SCT200=



000
FTUS46 KSGX 292300
TAFSNA
TAF
KSNA 292337Z 3000/3024 22007KT P6SM SKC
     FM300200 VRB03KT P6SM SCT008
      TEMPO 3009/3013 3SM HZ BKN005
     FM301400 VRB03KT P6SM SCT200
     FM302000 23008KT P6SM SCT200=



000
FTUS46 KSGX 292300
TAFCRQ
TAF
KCRQ 292337Z 3000/3024 26007KT P6SM SKC
     FM300100 VRB03KT P6SM FEW007
      TEMPO 3008/3012 4SM BR BKN004
     FM301500 VRB03KT P6SM SCT200
     FM302000 25008KT P6SM SCT200=



000
FTUS46 KSGX 292000 AAA
TAFSAN
TAF AMD
KSAN 292035Z 2920/3024 30008KT P6SM SKC
     FM300200 VRB03KT P6SM FEW010 SCT200
      TEMPO 3008/3012 5SM HZ BKN008
     FM302000 28008KT P6SM SCT250=



000
FTUS46 KSGX 292000 AAA
TAFSAN
TAF AMD
KSAN 292035Z 2920/3024 30008KT P6SM SKC
     FM300200 VRB03KT P6SM FEW010 SCT200
      TEMPO 3008/3012 5SM HZ BKN008
     FM302000 28008KT P6SM SCT250=



000
FTUS46 KSGX 291700
TAFSNA
TAF
KSNA 291721Z 2918/3018 VRB03KT P6SM SKC
     FM291900 22007KT P6SM SKC
     FM300200 VRB03KT P6SM SCT009
      TEMPO 3009/3013 6SM HZ BKN007
     FM301400 VRB03KT P6SM SCT200=



000
FTUS46 KSGX 291700
TAFTRM
TAF
KTRM 291721Z 2918/3018 VRB05KT P6SM SCT200=



000
FTUS46 KSGX 291700
TAFSAN
TAF
KSAN 291721Z 2918/3024 VRB04KT P6SM SKC
     FM291900 30009KT P6SM SKC
     FM300200 VRB03KT P6SM FEW010
      TEMPO 3008/3012 5SM HZ BKN008
     FM302000 28008KT P6SM SCT250=



000
FTUS46 KSGX 291700
TAFCRQ
TAF
KCRQ 291721Z 2918/3018 VRB03KT P6SM SKC
     FM291900 26007KT P6SM SKC
     FM300100 VRB03KT P6SM FEW007
      TEMPO 3008/3012 4SM BR BKN005
     FM301500 VRB03KT P6SM SCT200=



000
FTUS46 KSGX 291700
TAFPSP
TAF
KPSP 291721Z 2918/3018 VRB06KT P6SM SCT200=



000
FTUS46 KSGX 291700
TAFONT
TAF
KONT 291721Z 2918/3024 VRB03KT P6SM SKC
     FM292100 27010KT P6SM SKC
     FM300300 VRB03KT P6SM FEW200
     FM302100 26010KT P6SM SCT200=



000
FTUS46 KSGX 291400 AAA
TAFSAN
TAF AMD
KSAN 291452Z 2915/3018 VRB03KT P6SM SKC
     FM291900 30009KT P6SM SKC
     FM300200 VRB04KT P6SM SCT010
      TEMPO 3010/3014 BKN009=



000
FTUS46 KSGX 291100
TAFSAN
TAF
KSAN 291120Z 2912/3018 VRB04KT P6SM SKC
     FM291900 30009KT P6SM SKC
     FM300200 VRB04KT P6SM SCT010
      TEMPO 3010/3014 BKN009=



000
FTUS46 KSGX 291100
TAFONT
TAF
KONT 291120Z 2912/3018 VRB04KT P6SM SKC
     FM292100 26009KT P6SM SKC
     FM300300 VRB04KT P6SM SCT200=



000
FTUS46 KSGX 291100
TAFPSP
TAF
KPSP 291120Z 2912/3012 32006KT P6SM SKC
     FM291800 11006KT P6SM SKC
     FM300300 33007KT P6SM SCT200=



000
FTUS46 KSGX 291100
TAFCRQ
TAF
KCRQ 291120Z 2912/3012 VRB03KT P6SM SKC
     FM291900 26008KT P6SM SKC
     FM300100 VRB03KT P6SM SCT007
      TEMPO 3008/3012 5SM BR BKN006=



000
FTUS46 KSGX 291100
TAFSNA
TAF
KSNA 291120Z 2912/3012 VRB03KT P6SM SKC
     FM291900 22008KT P6SM SKC
     FM300200 VRB04KT P6SM SCT009=



000
FTUS46 KSGX 291100
TAFTRM
TAF
KTRM 291120Z 2912/3012 VRB05KT P6SM SKC=



000
FTUS46 KSGX 290900 AAA
TAFSAN
TAF AMD
KSAN 290905Z 2909/3012 VRB04KT P6SM SKC
     FM291900 30008KT P6SM SKC
     FM300200 VRB04KT P6SM SCT010
     FM300600 VRB03KT P6SM BKN009=



000
FTUS46 KSGX 290500
TAFSAN
TAF
KSAN 290520Z 2906/3012 VRB04KT P6SM FEW012
     FM291900 30007KT P6SM SKC
     FM300200 VRB04KT P6SM SCT012
     FM300700 VRB03KT P6SM BKN010=



000
FTUS46 KSGX 290500
TAFSNA
TAF
KSNA 290520Z 2906/3006 VRB03KT P6SM FEW011
     FM292100 22007KT P6SM SKC
     FM300100 VRB04KT P6SM FEW012=



000
FTUS46 KSGX 290500
TAFTRM
TAF
KTRM 290520Z 2906/3006 VRB05KT P6SM SKC=



000
FTUS46 KSGX 290500
TAFCRQ
TAF
KCRQ 290520Z 2906/3006 VRB03KT P6SM SKC
     FM291900 26007KT P6SM SKC
     FM300100 VRB03KT P6SM FEW010=



000
FTUS46 KSGX 290500
TAFPSP
TAF
KPSP 290520Z 2906/3006 VRB06KT P6SM SKC=



000
FTUS46 KSGX 290500
TAFONT
TAF
KONT 290520Z 2906/3012 VRB04KT P6SM SKC
     FM292200 25009KT P6SM SKC
     FM300400 VRB04KT P6SM SKC=



000
FTUS46 KSGX 290200 AAA
TAFSAN
TAF AMD
KSAN 290252Z 2903/3006 VRB04KT P6SM FEW012
     FM291900 30007KT P6SM SKC
     FM300200 VRB04KT P6SM SCT010=



000
FTUS46 KSGX 282300
TAFPSP
TAF
KPSP 282320Z 2900/2924 VRB06KT P6SM SKC=



000
FTUS46 KSGX 282300
TAFSAN
TAF
KSAN 282320Z 2900/3006 31008KT P6SM SKC
     FM290100 VRB04KT P6SM FEW010
     FM291900 30007KT P6SM SKC
     FM300200 VRB04KT P6SM SCT010=



000
FTUS46 KSGX 282300
TAFCRQ
TAF
KCRQ 282320Z 2900/2924 26007KT P6SM SKC
     FM290100 VRB03KT P6SM SKC
     FM291900 26007KT P6SM SKC=



000
FTUS46 KSGX 282300
TAFSNA
TAF
KSNA 282320Z 2900/2924 22006KT P6SM SKC
     FM290200 VRB03KT P6SM SKC
     FM292100 22007KT P6SM SKC=



000
FTUS46 KSGX 282300
TAFTRM
TAF
KTRM 282320Z 2900/2924 VRB05KT P6SM SKC=



000
FTUS46 KSGX 282300
TAFONT
TAF
KONT 282320Z 2900/3006 25007KT P6SM SKC
     FM290300 VRB03KT P6SM SKC
     FM292200 26009KT P6SM SKC
     FM300300 VRB03KT P6SM SKC=



000
FTUS46 KSGX 282000 AAA
TAFSAN
TAF AMD
KSAN 282035Z 2821/2924 31009KT P6SM SKC
     FM290200 VRB04KT P6SM SKC
     FM292000 30008KT P6SM SKC=



000
FTUS46 KSGX 281700
TAFSNA
TAF
KSNA 281721Z 2818/2918 VRB04KT P6SM SKC
     FM282000 22007KT P6SM SKC
     FM290200 VRB04KT P6SM SKC=



000
FTUS46 KSGX 281700
TAFONT
TAF
KONT 281721Z 2818/2924 VRB04KT P6SM SKC
     FM282100 26009KT P6SM SKC
     FM290300 VRB03KT P6SM SKC
     FM292100 26009KT P6SM SKC=



000
FTUS46 KSGX 281700
TAFPSP
TAF
KPSP 281721Z 2818/2918 VRB06KT P6SM SKC=



000
FTUS46 KSGX 281700
TAFSAN
TAF
KSAN 281721Z 2818/2924 VRB03KT P6SM SKC
     FM282000 29009KT P6SM SKC
     FM290200 VRB04KT P6SM SKC
     FM291900 30008KT P6SM SKC=



000
FTUS46 KSGX 281700
TAFTRM
TAF
KTRM 281721Z 2818/2918 VRB05KT P6SM SKC=



000
FTUS46 KSGX 281700
TAFCRQ
TAF
KCRQ 281721Z 2818/2918 VRB03KT P6SM SKC
     FM282000 26007KT P6SM SKC
     FM290100 VRB03KT P6SM SKC=



    US Dept of Commerce
    National Oceanic and Atmospheric Administration
    National Weather Service
    1325 East West Highway
    Silver Spring, MD 20910
    Page Author: NWS Internet Services Team
Disclaimer
Information Quality
Credits
Glossary
Privacy Policy
Freedom of Information Act (FOIA)
About Us
Career Opportunities